sensor_id;sensor_type;location;lat;lon;timestamp;temperature;humidity
16907;DHT22;8570;52.380;4.654;2023-04-22T00:00:48;11.10;99.90
16907;DHT22;8570;52.380;4.654;2023-04-22T00:05:50;11.00;99.90
16907;DHT22;8570;52.380;4.654;2023-04-22T00:10:54;10.90;99.90
16907;DHT22;8570;52.380;4.654;2023-04-22T00:15:56;10.70;99.90
16907;DHT22;8570;52.380;4.654;2023-04-22T00:20:58;10.70;99.90
16907;DHT22;8570;52.380;4.654;2023-04-22T00:26:01;10.60;99.90
16907;DHT22;8570;52.380;4.654;2023-04-22T00:31:03;10.50;99.90
16907;DHT22;8570;52.380;4.654;2023-04-22T00:36:06;10.50;99.90
16907;DHT22;8570;52.380;4.654;2023-04-22T00:41:09;10.40;99.90
16907;DHT22;8570;52.380;4.654;2023-04-22T00:46:12;10.30;99.90
16907;DHT22;8570;52.380;4.654;2023-04-22T00:51:15;10.30;99.90
16907;DHT22;8570;52.380;4.654;2023-04-22T00:56:18;10.30;99.90
16907;DHT22;8570;52.380;4.654;2023-04-22T01:01:21;10.20;99.90
16907;DHT22;8570;52.380;4.654;2023-04-22T01:06:23;10.20;99.90
16907;DHT22;8570;52.380;4.654;2023-04-22T01:11:28;10.20;99.90
16907;DHT22;8570;52.380;4.654;2023-04-22T01:16:31;10.10;99.90
16907;DHT22;8570;52.380;4.654;2023-04-22T01:21:35;10.10;99.90
16907;DHT22;8570;52.380;4.654;2023-04-22T01:26:39;10.00;99.90
16907;DHT22;8570;52.380;4.654;2023-04-22T01:31:41;10.00;99.90
16907;DHT22;8570;52.380;4.654;2023-04-22T01:36:43;9.90;99.90
16907;DHT22;8570;52.380;4.654;2023-04-22T01:41:47;9.80;99.90
16907;DHT22;8570;52.380;4.654;2023-04-22T01:46:49;9.70;99.90
16907;DHT22;8570;52.380;4.654;2023-04-22T01:51:51;9.60;99.90
16907;DHT22;8570;52.380;4.654;2023-04-22T01:56:54;9.50;99.90
16907;DHT22;8570;52.380;4.654;2023-04-22T02:01:58;9.50;99.90
16907;DHT22;8570;52.380;4.654;2023-04-22T02:06:59;9.40;99.90
16907;DHT22;8570;52.380;4.654;2023-04-22T02:12:03;9.30;99.90
16907;DHT22;8570;52.380;4.654;2023-04-22T02:17:05;9.30;99.90
16907;DHT22;8570;52.380;4.654;2023-04-22T02:22:07;9.30;99.90
16907;DHT22;8570;52.380;4.654;2023-04-22T02:27:10;9.30;99.90
16907;DHT22;8570;52.380;4.654;2023-04-22T02:32:12;9.20;99.90
16907;DHT22;8570;52.380;4.654;2023-04-22T02:37:14;9.20;99.90
16907;DHT22;8570;52.380;4.654;2023-04-22T02:42:18;9.10;99.90
16907;DHT22;8570;52.380;4.654;2023-04-22T02:47:20;9.10;99.90
16907;DHT22;8570;52.380;4.654;2023-04-22T02:52:22;9.00;99.90
16907;DHT22;8570;52.380;4.654;2023-04-22T02:57:25;9.00;99.90
16907;DHT22;8570;52.380;4.654;2023-04-22T03:02:27;8.90;99.90
16907;DHT22;8570;52.380;4.654;2023-04-22T03:07:29;8.90;99.90
16907;DHT22;8570;52.380;4.654;2023-04-22T03:12:32;8.90;99.90
16907;DHT22;8570;52.380;4.654;2023-04-22T03:17:34;8.80;99.90
16907;DHT22;8570;52.380;4.654;2023-04-22T03:22:36;8.80;99.90
16907;DHT22;8570;52.380;4.654;2023-04-22T03:27:40;8.70;99.90
16907;DHT22;8570;52.380;4.654;2023-04-22T03:32:42;8.70;99.90
16907;DHT22;8570;52.380;4.654;2023-04-22T03:37:44;8.70;99.90
16907;DHT22;8570;52.380;4.654;2023-04-22T03:42:47;8.60;99.90
16907;DHT22;8570;52.380;4.654;2023-04-22T03:47:49;8.60;99.90
16907;DHT22;8570;52.380;4.654;2023-04-22T03:52:51;8.60;99.90
16907;DHT22;8570;52.380;4.654;2023-04-22T03:57:54;8.50;99.90
16907;DHT22;8570;52.380;4.654;2023-04-22T04:02:58;8.50;99.90
16907;DHT22;8570;52.380;4.654;2023-04-22T04:08:00;8.40;99.90
16907;DHT22;8570;52.380;4.654;2023-04-22T04:13:03;8.40;99.90
16907;DHT22;8570;52.380;4.654;2023-04-22T04:18:06;8.40;99.90
16907;DHT22;8570;52.380;4.654;2023-04-22T04:23:09;8.30;99.90
16907;DHT22;8570;52.380;4.654;2023-04-22T04:28:13;8.30;99.90
16907;DHT22;8570;52.380;4.654;2023-04-22T04:33:14;8.20;99.90
16907;DHT22;8570;52.380;4.654;2023-04-22T04:38:17;8.20;99.90
16907;DHT22;8570;52.380;4.654;2023-04-22T06:04:05;8.70;99.90
16907;DHT22;8570;52.380;4.654;2023-04-22T06:09:09;8.60;99.90
16907;DHT22;8570;52.380;4.654;2023-04-22T06:14:12;8.60;99.90
16907;DHT22;8570;52.380;4.654;2023-04-22T06:54:35;9.20;99.90
16907;DHT22;8570;52.380;4.654;2023-04-22T06:59:39;9.30;99.90
16907;DHT22;8570;52.380;4.654;2023-04-22T07:04:41;9.40;99.90
16907;DHT22;8570;52.380;4.654;2023-04-22T07:09:43;9.50;99.90
16907;DHT22;8570;52.380;4.654;2023-04-22T07:14:48;9.70;99.90
16907;DHT22;8570;52.380;4.654;2023-04-22T07:19:50;9.80;99.90
16907;DHT22;8570;52.380;4.654;2023-04-22T07:24:52;9.90;99.90
16907;DHT22;8570;52.380;4.654;2023-04-22T07:29:56;10.10;99.90
16907;DHT22;8570;52.380;4.654;2023-04-22T07:34:58;10.20;99.90
16907;DHT22;8570;52.380;4.654;2023-04-22T07:40:00;10.30;99.90
16907;DHT22;8570;52.380;4.654;2023-04-22T07:45:04;10.40;99.90
16907;DHT22;8570;52.380;4.654;2023-04-22T08:40:39;12.20;99.90
16907;DHT22;8570;52.380;4.654;2023-04-22T08:45:44;12.50;99.90
16907;DHT22;8570;52.380;4.654;2023-04-22T09:26:11;15.20;99.90
16907;DHT22;8570;52.380;4.654;2023-04-22T09:31:16;15.50;99.90
16907;DHT22;8570;52.380;4.654;2023-04-22T09:36:20;15.90;99.90
16907;DHT22;8570;52.380;4.654;2023-04-22T09:41:27;16.20;99.90
16907;DHT22;8570;52.380;4.654;2023-04-22T09:46:31;16.40;99.90
16907;DHT22;8570;52.380;4.654;2023-04-22T09:51:34;16.60;99.90
16907;DHT22;8570;52.380;4.654;2023-04-22T09:56:42;16.60;99.90
16907;DHT22;8570;52.380;4.654;2023-04-22T10:01:45;16.70;99.90
16907;DHT22;8570;52.380;4.654;2023-04-22T10:06:47;16.70;99.90
16907;DHT22;8570;52.380;4.654;2023-04-22T10:11:51;16.60;99.90
16907;DHT22;8570;52.380;4.654;2023-04-22T10:16:57;16.40;99.90
16907;DHT22;8570;52.380;4.654;2023-04-22T10:22:02;16.30;99.90
16907;DHT22;8570;52.380;4.654;2023-04-22T10:27:05;16.20;99.90
16907;DHT22;8570;52.380;4.654;2023-04-22T10:37:43;16.20;99.90
16907;DHT22;8570;52.380;4.654;2023-04-22T10:42:49;16.20;99.90
16907;DHT22;8570;52.380;4.654;2023-04-22T10:47:51;16.10;99.90
16907;DHT22;8570;52.380;4.654;2023-04-22T10:52:57;16.00;99.90
16907;DHT22;8570;52.380;4.654;2023-04-22T10:57:59;15.80;99.90
16907;DHT22;8570;52.380;4.654;2023-04-22T11:03:25;15.50;99.90
16907;DHT22;8570;52.380;4.654;2023-04-22T11:08:29;15.20;99.90
16907;DHT22;8570;52.380;4.654;2023-04-22T11:13:31;15.10;99.90
16907;DHT22;8570;52.380;4.654;2023-04-22T11:18:33;14.80;99.90
16907;DHT22;8570;52.380;4.654;2023-04-22T11:23:36;14.70;99.90
16907;DHT22;8570;52.380;4.654;2023-04-22T11:28:44;14.50;99.90
16907;DHT22;8570;52.380;4.654;2023-04-22T11:33:46;14.30;99.90
16907;DHT22;8570;52.380;4.654;2023-04-22T11:38:55;14.20;99.90
16907;DHT22;8570;52.380;4.654;2023-04-22T11:43:59;14.00;99.90
16907;DHT22;8570;52.380;4.654;2023-04-22T11:49:15;13.90;99.90
16907;DHT22;8570;52.380;4.654;2023-04-22T11:54:31;13.80;99.90
16907;DHT22;8570;52.380;4.654;2023-04-22T11:59:33;13.60;99.90
16907;DHT22;8570;52.380;4.654;2023-04-22T12:04:36;13.40;99.90
16907;DHT22;8570;52.380;4.654;2023-04-22T12:09:40;13.40;99.90
16907;DHT22;8570;52.380;4.654;2023-04-22T12:14:44;13.30;99.90
16907;DHT22;8570;52.380;4.654;2023-04-22T12:19:47;13.20;99.90
16907;DHT22;8570;52.380;4.654;2023-04-22T12:24:50;13.10;99.90
16907;DHT22;8570;52.380;4.654;2023-04-22T12:29:53;13.00;99.90
16907;DHT22;8570;52.380;4.654;2023-04-22T12:34:55;12.80;99.90
16907;DHT22;8570;52.380;4.654;2023-04-22T12:39:58;12.70;99.90
16907;DHT22;8570;52.380;4.654;2023-04-22T12:45:00;12.60;99.90
16907;DHT22;8570;52.380;4.654;2023-04-22T12:50:03;12.50;99.90
16907;DHT22;8570;52.380;4.654;2023-04-22T12:55:07;12.40;99.90
16907;DHT22;8570;52.380;4.654;2023-04-22T13:00:10;12.30;99.90
16907;DHT22;8570;52.380;4.654;2023-04-22T13:05:15;12.20;99.90
16907;DHT22;8570;52.380;4.654;2023-04-22T13:10:18;12.10;99.90
16907;DHT22;8570;52.380;4.654;2023-04-22T13:15:22;12.10;99.90
16907;DHT22;8570;52.380;4.654;2023-04-22T13:20:26;12.00;99.90
16907;DHT22;8570;52.380;4.654;2023-04-22T13:25:29;12.00;99.90
16907;DHT22;8570;52.380;4.654;2023-04-22T13:30:32;12.00;99.90
16907;DHT22;8570;52.380;4.654;2023-04-22T13:35:34;12.00;99.90
16907;DHT22;8570;52.380;4.654;2023-04-22T13:40:38;12.00;99.90
16907;DHT22;8570;52.380;4.654;2023-04-22T13:45:40;12.00;99.90
16907;DHT22;8570;52.380;4.654;2023-04-22T13:50:42;11.90;99.90
16907;DHT22;8570;52.380;4.654;2023-04-22T13:55:46;11.90;99.90
16907;DHT22;8570;52.380;4.654;2023-04-22T14:00:48;11.90;99.90
16907;DHT22;8570;52.380;4.654;2023-04-22T14:05:53;11.90;99.90
16907;DHT22;8570;52.380;4.654;2023-04-22T14:10:56;11.90;99.90
16907;DHT22;8570;52.380;4.654;2023-04-22T14:16:00;11.80;99.90
16907;DHT22;8570;52.380;4.654;2023-04-22T14:21:04;11.80;99.90
16907;DHT22;8570;52.380;4.654;2023-04-22T14:26:10;11.80;99.90
16907;DHT22;8570;52.380;4.654;2023-04-22T14:31:12;11.80;99.90
16907;DHT22;8570;52.380;4.654;2023-04-22T14:36:16;11.70;99.90
16907;DHT22;8570;52.380;4.654;2023-04-22T14:41:20;11.70;99.90
16907;DHT22;8570;52.380;4.654;2023-04-22T14:46:22;11.70;99.90
16907;DHT22;8570;52.380;4.654;2023-04-22T14:51:23;11.70;99.90
16907;DHT22;8570;52.380;4.654;2023-04-22T14:56:29;11.70;99.90
16907;DHT22;8570;52.380;4.654;2023-04-22T15:01:31;11.60;99.90
16907;DHT22;8570;52.380;4.654;2023-04-22T15:06:33;11.60;99.90
16907;DHT22;8570;52.380;4.654;2023-04-22T15:11:37;11.50;99.90
16907;DHT22;8570;52.380;4.654;2023-04-22T15:16:39;11.50;99.90
16907;DHT22;8570;52.380;4.654;2023-04-22T15:21:41;11.50;99.90
16907;DHT22;8570;52.380;4.654;2023-04-22T15:26:44;11.40;99.90
16907;DHT22;8570;52.380;4.654;2023-04-22T15:31:46;11.30;99.90
16907;DHT22;8570;52.380;4.654;2023-04-22T15:36:48;11.30;99.90
16907;DHT22;8570;52.380;4.654;2023-04-22T15:41:51;11.30;99.90
16907;DHT22;8570;52.380;4.654;2023-04-22T15:46:53;11.30;99.90
16907;DHT22;8570;52.380;4.654;2023-04-22T15:51:55;11.30;99.90
16907;DHT22;8570;52.380;4.654;2023-04-22T15:56:58;11.30;99.90
16907;DHT22;8570;52.380;4.654;2023-04-22T16:02:00;11.40;99.90
16907;DHT22;8570;52.380;4.654;2023-04-22T16:07:02;11.40;99.90
16907;DHT22;8570;52.380;4.654;2023-04-22T16:12:06;11.50;99.90
16907;DHT22;8570;52.380;4.654;2023-04-22T16:17:08;11.50;99.90
16907;DHT22;8570;52.380;4.654;2023-04-22T16:22:10;11.50;99.90
16907;DHT22;8570;52.380;4.654;2023-04-22T16:27:13;11.60;99.90
16907;DHT22;8570;52.380;4.654;2023-04-22T16:32:16;11.70;99.90
16907;DHT22;8570;52.380;4.654;2023-04-22T16:37:18;11.70;99.90
16907;DHT22;8570;52.380;4.654;2023-04-22T16:42:22;11.80;99.90
16907;DHT22;8570;52.380;4.654;2023-04-22T16:47:24;11.80;99.90
16907;DHT22;8570;52.380;4.654;2023-04-22T16:52:26;11.90;99.90
16907;DHT22;8570;52.380;4.654;2023-04-22T16:57:32;12.00;99.90
16907;DHT22;8570;52.380;4.654;2023-04-22T17:02:34;12.10;99.90
16907;DHT22;8570;52.380;4.654;2023-04-22T17:07:36;12.20;99.90
16907;DHT22;8570;52.380;4.654;2023-04-22T17:12:39;12.20;99.90
16907;DHT22;8570;52.380;4.654;2023-04-22T17:17:41;12.20;99.90
16907;DHT22;8570;52.380;4.654;2023-04-22T17:22:44;12.20;99.90
16907;DHT22;8570;52.380;4.654;2023-04-22T17:27:47;12.10;99.90
16907;DHT22;8570;52.380;4.654;2023-04-22T17:32:49;12.10;99.90
16907;DHT22;8570;52.380;4.654;2023-04-22T17:37:51;12.10;99.90
16907;DHT22;8570;52.380;4.654;2023-04-22T17:42:54;12.00;99.90
16907;DHT22;8570;52.380;4.654;2023-04-22T17:47:56;12.00;99.90
16907;DHT22;8570;52.380;4.654;2023-04-22T17:52:58;12.00;99.90
16907;DHT22;8570;52.380;4.654;2023-04-22T17:58:02;11.90;99.90
16907;DHT22;8570;52.380;4.654;2023-04-22T18:03:04;11.80;99.90
16907;DHT22;8570;52.380;4.654;2023-04-22T18:08:07;11.70;99.90
16907;DHT22;8570;52.380;4.654;2023-04-22T18:13:11;11.60;99.90
16907;DHT22;8570;52.380;4.654;2023-04-22T18:18:13;11.50;99.90
16907;DHT22;8570;52.380;4.654;2023-04-22T18:23:15;11.40;99.90
16907;DHT22;8570;52.380;4.654;2023-04-22T18:28:19;11.30;99.90
16907;DHT22;8570;52.380;4.654;2023-04-22T18:33:21;11.30;99.90
16907;DHT22;8570;52.380;4.654;2023-04-22T18:38:22;11.20;99.90
16907;DHT22;8570;52.380;4.654;2023-04-22T18:43:26;11.10;99.90
16907;DHT22;8570;52.380;4.654;2023-04-22T18:48:28;11.00;99.90
16907;DHT22;8570;52.380;4.654;2023-04-22T18:53:30;10.90;99.90
16907;DHT22;8570;52.380;4.654;2023-04-22T18:58:35;10.90;99.90
16907;DHT22;8570;52.380;4.654;2023-04-22T19:03:37;10.80;99.90
16907;DHT22;8570;52.380;4.654;2023-04-22T19:08:39;10.70;99.90
16907;DHT22;8570;52.380;4.654;2023-04-22T19:13:42;10.60;99.90
16907;DHT22;8570;52.380;4.654;2023-04-22T19:18:44;10.50;99.90
16907;DHT22;8570;52.380;4.654;2023-04-22T19:23:46;10.50;99.90
16907;DHT22;8570;52.380;4.654;2023-04-22T19:28:49;10.40;99.90
16907;DHT22;8570;52.380;4.654;2023-04-22T19:33:51;10.40;99.90
16907;DHT22;8570;52.380;4.654;2023-04-22T19:38:53;10.30;99.90
16907;DHT22;8570;52.380;4.654;2023-04-22T19:43:57;10.30;99.90
16907;DHT22;8570;52.380;4.654;2023-04-22T19:48:59;10.20;99.90
